sensor_id;sensor_type;location;lat;lon;timestamp;P1;durP1;ratioP1;P2;durP2;ratioP2
11006;SDS011;8186;57.652;11.968;2022-07-01T00:00:12;3.92;;;2.70;;
11006;SDS011;8186;57.652;11.968;2022-07-01T00:02:41;3.97;;;2.90;;
11006;SDS011;8186;57.652;11.968;2022-07-01T00:05:08;3.38;;;2.28;;
11006;SDS011;8186;57.652;11.968;2022-07-01T00:07:35;2.95;;;2.65;;
11006;SDS011;8186;57.652;11.968;2022-07-01T00:10:02;2.92;;;2.63;;
11006;SDS011;8186;57.652;11.968;2022-07-01T00:12:29;4.38;;;2.70;;
11006;SDS011;8186;57.652;11.968;2022-07-01T00:14:56;4.55;;;2.55;;
11006;SDS011;8186;57.652;11.968;2022-07-01T00:17:23;2.72;;;2.42;;
11006;SDS011;8186;57.652;11.968;2022-07-01T00:19:51;4.28;;;2.97;;
11006;SDS011;8186;57.652;11.968;2022-07-01T00:22:18;4.85;;;2.85;;
11006;SDS011;8186;57.652;11.968;2022-07-01T00:24:45;2.80;;;2.60;;
11006;SDS011;8186;57.652;11.968;2022-07-01T00:27:13;3.72;;;2.90;;
11006;SDS011;8186;57.652;11.968;2022-07-01T00:29:40;3.63;;;2.90;;
11006;SDS011;8186;57.652;11.968;2022-07-01T00:32:07;3.25;;;2.70;;
11006;SDS011;8186;57.652;11.968;2022-07-01T00:34:34;3.45;;;3.15;;
11006;SDS011;8186;57.652;11.968;2022-07-01T00:37:02;5.43;;;3.22;;
11006;SDS011;8186;57.652;11.968;2022-07-01T00:39:30;3.17;;;2.88;;
11006;SDS011;8186;57.652;11.968;2022-07-01T00:41:59;3.40;;;2.92;;
11006;SDS011;8186;57.652;11.968;2022-07-01T00:44:26;4.15;;;3.55;;
11006;SDS011;8186;57.652;11.968;2022-07-01T00:46:53;3.70;;;3.33;;
11006;SDS011;8186;57.652;11.968;2022-07-01T00:49:20;5.95;;;3.58;;
11006;SDS011;8186;57.652;11.968;2022-07-01T00:51:47;4.55;;;3.30;;
11006;SDS011;8186;57.652;11.968;2022-07-01T00:54:16;3.50;;;3.20;;
11006;SDS011;8186;57.652;11.968;2022-07-01T00:56:42;4.57;;;3.20;;
11006;SDS011;8186;57.652;11.968;2022-07-01T00:59:09;5.25;;;3.65;;
11006;SDS011;8186;57.652;11.968;2022-07-01T01:01:36;3.58;;;3.28;;
11006;SDS011;8186;57.652;11.968;2022-07-01T01:04:03;3.83;;;3.53;;
11006;SDS011;8186;57.652;11.968;2022-07-01T01:06:30;3.80;;;3.50;;
11006;SDS011;8186;57.652;11.968;2022-07-01T01:08:57;3.97;;;3.25;;
11006;SDS011;8186;57.652;11.968;2022-07-01T01:11:26;3.83;;;3.33;;
11006;SDS011;8186;57.652;11.968;2022-07-01T01:13:53;3.40;;;3.10;;
11006;SDS011;8186;57.652;11.968;2022-07-01T01:16:20;3.95;;;3.50;;
11006;SDS011;8186;57.652;11.968;2022-07-01T01:18:48;4.10;;;3.70;;
11006;SDS011;8186;57.652;11.968;2022-07-01T01:21:17;4.05;;;3.00;;
11006;SDS011;8186;57.652;11.968;2022-07-01T01:23:45;3.42;;;3.13;;
11006;SDS011;8186;57.652;11.968;2022-07-01T01:26:19;4.25;;;3.85;;
11006;SDS011;8186;57.652;11.968;2022-07-01T01:28:49;3.55;;;3.20;;
11006;SDS011;8186;57.652;11.968;2022-07-01T01:31:16;4.40;;;3.60;;
11006;SDS011;8186;57.652;11.968;2022-07-01T01:33:44;3.92;;;3.55;;
11006;SDS011;8186;57.652;11.968;2022-07-01T01:36:11;5.68;;;3.42;;
11006;SDS011;8186;57.652;11.968;2022-07-01T01:38:39;4.15;;;3.33;;
11006;SDS011;8186;57.652;11.968;2022-07-01T01:41:06;3.95;;;3.65;;
11006;SDS011;8186;57.652;11.968;2022-07-01T01:43:34;3.78;;;3.58;;
11006;SDS011;8186;57.652;11.968;2022-07-01T01:46:01;4.68;;;4.05;;
11006;SDS011;8186;57.652;11.968;2022-07-01T01:48:29;3.97;;;3.65;;
11006;SDS011;8186;57.652;11.968;2022-07-01T01:50:56;3.92;;;3.58;;
11006;SDS011;8186;57.652;11.968;2022-07-01T01:53:24;4.00;;;3.70;;
11006;SDS011;8186;57.652;11.968;2022-07-01T01:55:52;4.32;;;3.97;;
11006;SDS011;8186;57.652;11.968;2022-07-01T01:58:19;3.72;;;3.42;;
11006;SDS011;8186;57.652;11.968;2022-07-01T02:00:46;4.72;;;4.07;;
11006;SDS011;8186;57.652;11.968;2022-07-01T02:03:13;7.30;;;3.83;;
11006;SDS011;8186;57.652;11.968;2022-07-01T02:05:40;4.60;;;4.18;;
11006;SDS011;8186;57.652;11.968;2022-07-01T02:08:07;4.85;;;4.28;;
11006;SDS011;8186;57.652;11.968;2022-07-01T02:10:34;4.25;;;3.92;;
11006;SDS011;8186;57.652;11.968;2022-07-01T02:13:02;4.78;;;4.30;;
11006;SDS011;8186;57.652;11.968;2022-07-01T02:15:29;4.53;;;4.15;;
11006;SDS011;8186;57.652;11.968;2022-07-01T02:17:57;4.57;;;4.18;;
11006;SDS011;8186;57.652;11.968;2022-07-01T02:20:25;4.55;;;4.15;;
11006;SDS011;8186;57.652;11.968;2022-07-01T02:22:52;4.80;;;4.15;;
11006;SDS011;8186;57.652;11.968;2022-07-01T02:25:19;4.75;;;3.65;;
11006;SDS011;8186;57.652;11.968;2022-07-01T02:27:46;4.10;;;3.60;;
11006;SDS011;8186;57.652;11.968;2022-07-01T02:30:14;4.28;;;3.88;;
11006;SDS011;8186;57.652;11.968;2022-07-01T02:32:41;5.47;;;3.75;;
11006;SDS011;8186;57.652;11.968;2022-07-01T02:35:08;4.50;;;4.10;;
11006;SDS011;8186;57.652;11.968;2022-07-01T02:37:36;5.20;;;3.85;;
11006;SDS011;8186;57.652;11.968;2022-07-01T02:40:03;6.30;;;4.70;;
11006;SDS011;8186;57.652;11.968;2022-07-01T02:42:31;5.35;;;4.43;;
11006;SDS011;8186;57.652;11.968;2022-07-01T02:45:02;5.20;;;4.70;;
11006;SDS011;8186;57.652;11.968;2022-07-01T02:47:34;5.10;;;4.70;;
11006;SDS011;8186;57.652;11.968;2022-07-01T02:50:02;4.88;;;4.38;;
11006;SDS011;8186;57.652;11.968;2022-07-01T02:52:29;6.03;;;4.68;;
11006;SDS011;8186;57.652;11.968;2022-07-01T02:54:57;4.75;;;4.40;;
11006;SDS011;8186;57.652;11.968;2022-07-01T02:57:24;5.05;;;4.75;;
11006;SDS011;8186;57.652;11.968;2022-07-01T02:59:51;6.13;;;4.55;;
11006;SDS011;8186;57.652;11.968;2022-07-01T03:02:18;6.13;;;4.50;;
11006;SDS011;8186;57.652;11.968;2022-07-01T03:04:47;6.60;;;4.50;;
11006;SDS011;8186;57.652;11.968;2022-07-01T03:07:14;5.82;;;4.60;;
11006;SDS011;8186;57.652;11.968;2022-07-01T03:09:42;5.10;;;4.60;;
11006;SDS011;8186;57.652;11.968;2022-07-01T03:12:09;4.60;;;4.20;;
11006;SDS011;8186;57.652;11.968;2022-07-01T03:14:53;4.63;;;4.22;;
11006;SDS011;8186;57.652;11.968;2022-07-01T03:17:21;4.78;;;4.43;;
11006;SDS011;8186;57.652;11.968;2022-07-01T03:19:49;4.43;;;4.05;;
11006;SDS011;8186;57.652;11.968;2022-07-01T03:22:18;4.93;;;4.45;;
11006;SDS011;8186;57.652;11.968;2022-07-01T03:24:46;5.30;;;3.97;;
11006;SDS011;8186;57.652;11.968;2022-07-01T03:27:13;5.20;;;4.30;;
11006;SDS011;8186;57.652;11.968;2022-07-01T03:29:41;4.63;;;4.07;;
11006;SDS011;8186;57.652;11.968;2022-07-01T03:32:07;4.68;;;4.28;;
11006;SDS011;8186;57.652;11.968;2022-07-01T03:34:35;4.43;;;3.95;;
11006;SDS011;8186;57.652;11.968;2022-07-01T03:37:04;6.10;;;3.85;;
11006;SDS011;8186;57.652;11.968;2022-07-01T03:39:32;5.18;;;4.28;;
11006;SDS011;8186;57.652;11.968;2022-07-01T03:41:59;4.68;;;4.20;;
11006;SDS011;8186;57.652;11.968;2022-07-01T03:44:27;4.15;;;3.65;;
11006;SDS011;8186;57.652;11.968;2022-07-01T03:46:54;4.20;;;3.80;;
11006;SDS011;8186;57.652;11.968;2022-07-01T03:49:21;4.95;;;3.88;;
11006;SDS011;8186;57.652;11.968;2022-07-01T03:51:48;3.78;;;3.47;;
11006;SDS011;8186;57.652;11.968;2022-07-01T03:54:17;5.53;;;3.65;;
11006;SDS011;8186;57.652;11.968;2022-07-01T03:56:55;3.97;;;3.40;;
11006;SDS011;8186;57.652;11.968;2022-07-01T03:59:22;3.53;;;3.22;;
11006;SDS011;8186;57.652;11.968;2022-07-01T04:01:49;3.60;;;3.10;;
11006;SDS011;8186;57.652;11.968;2022-07-01T04:04:16;4.03;;;3.33;;
11006;SDS011;8186;57.652;11.968;2022-07-01T04:06:43;4.93;;;3.38;;
11006;SDS011;8186;57.652;11.968;2022-07-01T04:09:10;3.70;;;3.33;;
11006;SDS011;8186;57.652;11.968;2022-07-01T04:11:40;4.07;;;3.50;;
11006;SDS011;8186;57.652;11.968;2022-07-01T04:14:07;6.13;;;3.20;;
11006;SDS011;8186;57.652;11.968;2022-07-01T04:16:35;4.07;;;3.53;;
11006;SDS011;8186;57.652;11.968;2022-07-01T04:19:02;4.22;;;3.10;;
11006;SDS011;8186;57.652;11.968;2022-07-01T04:21:30;3.80;;;3.25;;
11006;SDS011;8186;57.652;11.968;2022-07-01T04:24:14;4.20;;;3.25;;
11006;SDS011;8186;57.652;11.968;2022-07-01T04:26:42;5.28;;;3.10;;
11006;SDS011;8186;57.652;11.968;2022-07-01T04:29:10;4.13;;;3.72;;
11006;SDS011;8186;57.652;11.968;2022-07-01T04:31:36;3.97;;;3.10;;
11006;SDS011;8186;57.652;11.968;2022-07-01T04:34:04;7.80;;;3.75;;
11006;SDS011;8186;57.652;11.968;2022-07-01T04:36:32;3.72;;;3.22;;
11006;SDS011;8186;57.652;11.968;2022-07-01T04:38:59;3.50;;;2.85;;
11006;SDS011;8186;57.652;11.968;2022-07-01T04:41:26;4.07;;;3.58;;
11006;SDS011;8186;57.652;11.968;2022-07-01T04:44:11;3.67;;;3.38;;
11006;SDS011;8186;57.652;11.968;2022-07-01T04:46:38;4.63;;;3.03;;
11006;SDS011;8186;57.652;11.968;2022-07-01T04:49:05;3.58;;;2.90;;
11006;SDS011;8186;57.652;11.968;2022-07-01T04:51:32;6.97;;;3.38;;
11006;SDS011;8186;57.652;11.968;2022-07-01T04:54:00;4.13;;;3.47;;
11006;SDS011;8186;57.652;11.968;2022-07-01T04:56:27;4.90;;;3.13;;
11006;SDS011;8186;57.652;11.968;2022-07-01T04:58:54;3.22;;;2.72;;
11006;SDS011;8186;57.652;11.968;2022-07-01T05:01:25;3.05;;;2.85;;
11006;SDS011;8186;57.652;11.968;2022-07-01T05:03:53;3.17;;;2.70;;
11006;SDS011;8186;57.652;11.968;2022-07-01T05:06:20;4.28;;;2.53;;
11006;SDS011;8186;57.652;11.968;2022-07-01T05:08:47;4.75;;;2.63;;
11006;SDS011;8186;57.652;11.968;2022-07-01T05:11:14;3.63;;;2.42;;
11006;SDS011;8186;57.652;11.968;2022-07-01T05:13:41;3.97;;;2.80;;
11006;SDS011;8186;57.652;11.968;2022-07-01T05:16:08;4.65;;;2.85;;
11006;SDS011;8186;57.652;11.968;2022-07-01T05:18:36;3.83;;;2.55;;
11006;SDS011;8186;57.652;11.968;2022-07-01T05:21:21;2.60;;;2.20;;
11006;SDS011;8186;57.652;11.968;2022-07-01T05:24:06;3.55;;;2.40;;
11006;SDS011;8186;57.652;11.968;2022-07-01T05:26:33;4.40;;;2.58;;
11006;SDS011;8186;57.652;11.968;2022-07-01T05:29:00;3.03;;;2.13;;
11006;SDS011;8186;57.652;11.968;2022-07-01T05:31:27;4.50;;;2.50;;
11006;SDS011;8186;57.652;11.968;2022-07-01T05:33:56;2.90;;;1.98;;
11006;SDS011;8186;57.652;11.968;2022-07-01T05:36:22;2.20;;;2.00;;
11006;SDS011;8186;57.652;11.968;2022-07-01T05:38:49;2.58;;;2.38;;
11006;SDS011;8186;57.652;11.968;2022-07-01T05:41:16;3.15;;;1.95;;
11006;SDS011;8186;57.652;11.968;2022-07-01T05:43:44;3.38;;;1.83;;
11006;SDS011;8186;57.652;11.968;2022-07-01T05:46:10;3.65;;;2.40;;
11006;SDS011;8186;57.652;11.968;2022-07-01T05:48:37;4.35;;;2.10;;
11006;SDS011;8186;57.652;11.968;2022-07-01T05:51:05;3.67;;;2.03;;
11006;SDS011;8186;57.652;11.968;2022-07-01T05:53:32;3.50;;;2.38;;
11006;SDS011;8186;57.652;11.968;2022-07-01T05:55:59;5.43;;;2.53;;
11006;SDS011;8186;57.652;11.968;2022-07-01T05:58:26;2.97;;;1.90;;
11006;SDS011;8186;57.652;11.968;2022-07-01T06:00:53;2.03;;;1.80;;
11006;SDS011;8186;57.652;11.968;2022-07-01T06:03:19;3.53;;;1.80;;
11006;SDS011;8186;57.652;11.968;2022-07-01T06:05:46;2.17;;;1.65;;
11006;SDS011;8186;57.652;11.968;2022-07-01T06:08:14;1.95;;;1.85;;
11006;SDS011;8186;57.652;11.968;2022-07-01T06:10:41;3.30;;;2.03;;
11006;SDS011;8186;57.652;11.968;2022-07-01T06:13:08;1.95;;;1.77;;
11006;SDS011;8186;57.652;11.968;2022-07-01T06:15:35;2.60;;;1.73;;
11006;SDS011;8186;57.652;11.968;2022-07-01T06:18:02;3.28;;;1.88;;
11006;SDS011;8186;57.652;11.968;2022-07-01T06:20:29;2.72;;;1.65;;
11006;SDS011;8186;57.652;11.968;2022-07-01T06:22:56;3.45;;;1.75;;
11006;SDS011;8186;57.652;11.968;2022-07-01T06:25:25;2.13;;;1.60;;
11006;SDS011;8186;57.652;11.968;2022-07-01T06:27:51;3.17;;;2.00;;
11006;SDS011;8186;57.652;11.968;2022-07-01T06:30:18;2.40;;;1.83;;
11006;SDS011;8186;57.652;11.968;2022-07-01T06:32:45;3.30;;;1.90;;
11006;SDS011;8186;57.652;11.968;2022-07-01T06:35:12;3.45;;;2.00;;
11006;SDS011;8186;57.652;11.968;2022-07-01T06:37:39;1.88;;;1.70;;
11006;SDS011;8186;57.652;11.968;2022-07-01T06:40:06;2.78;;;2.05;;
11006;SDS011;8186;57.652;11.968;2022-07-01T06:42:35;3.28;;;2.10;;
11006;SDS011;8186;57.652;11.968;2022-07-01T06:45:01;2.72;;;2.05;;
11006;SDS011;8186;57.652;11.968;2022-07-01T06:47:29;4.40;;;1.92;;
11006;SDS011;8186;57.652;11.968;2022-07-01T06:49:55;2.75;;;1.60;;
11006;SDS011;8186;57.652;11.968;2022-07-01T06:52:22;4.95;;;2.00;;
11006;SDS011;8186;57.652;11.968;2022-07-01T06:54:49;2.65;;;1.70;;
11006;SDS011;8186;57.652;11.968;2022-07-01T06:57:16;2.40;;;1.67;;
11006;SDS011;8186;57.652;11.968;2022-07-01T06:59:45;2.97;;;1.95;;
11006;SDS011;8186;57.652;11.968;2022-07-01T07:02:11;5.63;;;2.03;;
11006;SDS011;8186;57.652;11.968;2022-07-01T07:04:38;3.28;;;1.92;;
11006;SDS011;8186;57.652;11.968;2022-07-01T07:07:05;2.10;;;1.80;;
11006;SDS011;8186;57.652;11.968;2022-07-01T07:09:32;2.53;;;2.10;;
11006;SDS011;8186;57.652;11.968;2022-07-01T07:11:59;2.20;;;1.80;;
11006;SDS011;8186;57.652;11.968;2022-07-01T07:14:26;3.17;;;1.80;;
11006;SDS011;8186;57.652;11.968;2022-07-01T07:16:54;2.60;;;1.85;;
11006;SDS011;8186;57.652;11.968;2022-07-01T07:19:21;4.63;;;1.95;;
11006;SDS011;8186;57.652;11.968;2022-07-01T07:21:47;5.53;;;1.88;;
11006;SDS011;8186;57.652;11.968;2022-07-01T07:24:14;5.97;;;2.15;;
11006;SDS011;8186;57.652;11.968;2022-07-01T07:26:41;4.03;;;1.90;;
11006;SDS011;8186;57.652;11.968;2022-07-01T07:29:08;2.85;;;1.75;;
11006;SDS011;8186;57.652;11.968;2022-07-01T07:31:35;4.47;;;2.28;;
11006;SDS011;8186;57.652;11.968;2022-07-01T07:34:03;2.63;;;1.67;;
11006;SDS011;8186;57.652;11.968;2022-07-01T07:36:30;3.25;;;1.85;;
11006;SDS011;8186;57.652;11.968;2022-07-01T07:38:57;2.15;;;1.92;;
11006;SDS011;8186;57.652;11.968;2022-07-01T07:41:24;2.13;;;1.70;;
11006;SDS011;8186;57.652;11.968;2022-07-01T07:43:51;6.50;;;2.00;;
11006;SDS011;8186;57.652;11.968;2022-07-01T07:46:18;3.17;;;1.95;;
11006;SDS011;8186;57.652;11.968;2022-07-01T07:48:45;3.85;;;2.08;;
11006;SDS011;8186;57.652;11.968;2022-07-01T07:51:14;4.30;;;2.00;;
11006;SDS011;8186;57.652;11.968;2022-07-01T07:53:43;2.40;;;2.05;;
11006;SDS011;8186;57.652;11.968;2022-07-01T07:56:10;4.07;;;2.20;;
11006;SDS011;8186;57.652;11.968;2022-07-01T07:58:37;3.33;;;2.17;;
11006;SDS011;8186;57.652;11.968;2022-07-01T08:01:07;2.47;;;2.28;;
11006;SDS011;8186;57.652;11.968;2022-07-01T08:03:35;2.97;;;2.28;;
11006;SDS011;8186;57.652;11.968;2022-07-01T08:06:01;3.05;;;1.88;;
11006;SDS011;8186;57.652;11.968;2022-07-01T08:08:30;2.20;;;1.98;;
11006;SDS011;8186;57.652;11.968;2022-07-01T08:10:57;4.65;;;2.40;;
11006;SDS011;8186;57.652;11.968;2022-07-01T08:13:24;3.15;;;2.03;;
11006;SDS011;8186;57.652;11.968;2022-07-01T08:15:51;2.60;;;2.17;;
11006;SDS011;8186;57.652;11.968;2022-07-01T08:18:18;3.20;;;2.17;;
11006;SDS011;8186;57.652;11.968;2022-07-01T08:20:45;3.15;;;2.10;;
11006;SDS011;8186;57.652;11.968;2022-07-01T08:23:12;3.47;;;2.00;;
11006;SDS011;8186;57.652;11.968;2022-07-01T08:25:40;3.55;;;2.40;;
11006;SDS011;8186;57.652;11.968;2022-07-01T08:28:07;3.60;;;2.40;;
11006;SDS011;8186;57.652;11.968;2022-07-01T08:30:34;3.45;;;2.00;;
11006;SDS011;8186;57.652;11.968;2022-07-01T08:33:00;3.85;;;2.10;;
11006;SDS011;8186;57.652;11.968;2022-07-01T08:35:28;2.42;;;2.00;;
11006;SDS011;8186;57.652;11.968;2022-07-01T08:37:55;4.20;;;2.40;;
11006;SDS011;8186;57.652;11.968;2022-07-01T08:40:24;3.15;;;2.28;;
11006;SDS011;8186;57.652;11.968;2022-07-01T08:42:55;6.03;;;2.70;;
11006;SDS011;8186;57.652;11.968;2022-07-01T08:45:25;3.75;;;2.25;;
11006;SDS011;8186;57.652;11.968;2022-07-01T08:47:53;3.40;;;2.22;;
11006;SDS011;8186;57.652;11.968;2022-07-01T08:50:23;2.72;;;2.10;;
11006;SDS011;8186;57.652;11.968;2022-07-01T08:52:50;4.90;;;2.97;;
11006;SDS011;8186;57.652;11.968;2022-07-01T08:55:17;3.20;;;2.28;;
11006;SDS011;8186;57.652;11.968;2022-07-01T08:57:45;2.58;;;2.17;;
11006;SDS011;8186;57.652;11.968;2022-07-01T09:00:13;3.22;;;2.50;;
11006;SDS011;8186;57.652;11.968;2022-07-01T09:02:54;6.25;;;2.50;;
11006;SDS011;8186;57.652;11.968;2022-07-01T09:05:22;2.35;;;2.00;;
11006;SDS011;8186;57.652;11.968;2022-07-01T09:07:54;2.70;;;1.92;;
11006;SDS011;8186;57.652;11.968;2022-07-01T09:10:23;3.58;;;2.03;;
11006;SDS011;8186;57.652;11.968;2022-07-01T09:12:50;4.10;;;2.47;;
11006;SDS011;8186;57.652;11.968;2022-07-01T09:15:22;4.13;;;2.28;;
11006;SDS011;8186;57.652;11.968;2022-07-01T09:17:53;4.00;;;2.42;;
11006;SDS011;8186;57.652;11.968;2022-07-01T09:20:22;4.28;;;2.95;;
11006;SDS011;8186;57.652;11.968;2022-07-01T09:22:57;4.85;;;2.97;;
11006;SDS011;8186;57.652;11.968;2022-07-01T09:25:28;3.25;;;2.08;;
11006;SDS011;8186;57.652;11.968;2022-07-01T09:30:46;3.58;;;2.42;;
11006;SDS011;8186;57.652;11.968;2022-07-01T09:33:15;3.15;;;2.88;;
11006;SDS011;8186;57.652;11.968;2022-07-01T09:35:43;2.95;;;2.58;;
11006;SDS011;8186;57.652;11.968;2022-07-01T09:38:11;5.45;;;2.63;;
11006;SDS011;8186;57.652;11.968;2022-07-01T09:40:50;3.53;;;2.90;;
11006;SDS011;8186;57.652;11.968;2022-07-01T09:43:18;3.08;;;2.78;;
11006;SDS011;8186;57.652;11.968;2022-07-01T09:45:54;6.00;;;3.13;;
11006;SDS011;8186;57.652;11.968;2022-07-01T09:48:24;4.05;;;2.90;;
11006;SDS011;8186;57.652;11.968;2022-07-01T09:50:51;4.65;;;2.60;;
11006;SDS011;8186;57.652;11.968;2022-07-01T09:53:18;3.70;;;2.83;;
11006;SDS011;8186;57.652;11.968;2022-07-01T09:55:45;3.38;;;2.83;;
11006;SDS011;8186;57.652;11.968;2022-07-01T09:58:12;3.58;;;2.70;;
11006;SDS011;8186;57.652;11.968;2022-07-01T10:00:39;4.00;;;2.83;;
11006;SDS011;8186;57.652;11.968;2022-07-01T10:03:08;5.65;;;3.20;;
11006;SDS011;8186;57.652;11.968;2022-07-01T10:05:37;3.88;;;2.53;;
11006;SDS011;8186;57.652;11.968;2022-07-01T10:08:10;2.92;;;2.60;;
11006;SDS011;8186;57.652;11.968;2022-07-01T10:10:49;4.53;;;2.58;;
11006;SDS011;8186;57.652;11.968;2022-07-01T10:13:17;2.88;;;2.47;;
11006;SDS011;8186;57.652;11.968;2022-07-01T10:15:48;2.95;;;2.72;;
11006;SDS011;8186;57.652;11.968;2022-07-01T10:18:20;4.53;;;2.92;;
11006;SDS011;8186;57.652;11.968;2022-07-01T10:20:48;6.00;;;2.60;;
11006;SDS011;8186;57.652;11.968;2022-07-01T10:23:15;2.88;;;2.53;;
11006;SDS011;8186;57.652;11.968;2022-07-01T10:25:42;5.03;;;2.50;;
11006;SDS011;8186;57.652;11.968;2022-07-01T10:28:20;6.20;;;2.80;;
11006;SDS011;8186;57.652;11.968;2022-07-01T10:30:51;3.22;;;2.88;;
11006;SDS011;8186;57.652;11.968;2022-07-01T10:33:32;3.97;;;2.90;;
11006;SDS011;8186;57.652;11.968;2022-07-01T10:36:05;3.03;;;2.30;;
11006;SDS011;8186;57.652;11.968;2022-07-01T10:44:34;5.07;;;2.92;;
11006;SDS011;8186;57.652;11.968;2022-07-01T10:47:03;3.90;;;2.60;;
11006;SDS011;8186;57.652;11.968;2022-07-01T10:52:21;3.55;;;2.70;;
11006;SDS011;8186;57.652;11.968;2022-07-01T10:54:50;3.25;;;2.42;;
11006;SDS011;8186;57.652;11.968;2022-07-01T10:57:19;2.97;;;2.20;;
11006;SDS011;8186;57.652;11.968;2022-07-01T10:59:49;3.22;;;2.25;;
11006;SDS011;8186;57.652;11.968;2022-07-01T11:02:17;3.92;;;2.10;;
11006;SDS011;8186;57.652;11.968;2022-07-01T11:04:46;4.35;;;2.40;;
11006;SDS011;8186;57.652;11.968;2022-07-01T11:07:14;2.40;;;2.10;;
11006;SDS011;8186;57.652;11.968;2022-07-01T11:09:41;3.85;;;2.47;;
11006;SDS011;8186;57.652;11.968;2022-07-01T11:12:08;3.88;;;2.42;;
11006;SDS011;8186;57.652;11.968;2022-07-01T11:14:35;2.55;;;2.20;;
11006;SDS011;8186;57.652;11.968;2022-07-01T11:17:02;3.25;;;2.10;;
11006;SDS011;8186;57.652;11.968;2022-07-01T11:19:30;3.47;;;2.33;;
11006;SDS011;8186;57.652;11.968;2022-07-01T11:21:57;2.70;;;2.20;;
11006;SDS011;8186;57.652;11.968;2022-07-01T11:24:25;2.17;;;1.98;;
11006;SDS011;8186;57.652;11.968;2022-07-01T11:26:54;3.67;;;1.95;;
11006;SDS011;8186;57.652;11.968;2022-07-01T11:29:24;2.67;;;1.95;;
11006;SDS011;8186;57.652;11.968;2022-07-01T11:31:52;2.13;;;1.92;;
11006;SDS011;8186;57.652;11.968;2022-07-01T11:34:19;3.28;;;2.00;;
11006;SDS011;8186;57.652;11.968;2022-07-01T11:36:46;2.83;;;2.50;;
11006;SDS011;8186;57.652;11.968;2022-07-01T11:39:32;2.28;;;2.08;;
11006;SDS011;8186;57.652;11.968;2022-07-01T11:42:01;3.72;;;2.15;;
11006;SDS011;8186;57.652;11.968;2022-07-01T11:44:30;2.40;;;2.20;;
11006;SDS011;8186;57.652;11.968;2022-07-01T11:47:00;2.67;;;2.47;;
11006;SDS011;8186;57.652;11.968;2022-07-01T11:49:27;2.90;;;2.22;;
11006;SDS011;8186;57.652;11.968;2022-07-01T11:51:54;2.90;;;2.63;;
11006;SDS011;8186;57.652;11.968;2022-07-01T11:54:22;4.30;;;2.25;;
11006;SDS011;8186;57.652;11.968;2022-07-01T11:56:50;4.15;;;2.40;;
11006;SDS011;8186;57.652;11.968;2022-07-01T11:59:17;3.42;;;2.30;;
11006;SDS011;8186;57.652;11.968;2022-07-01T12:01:50;4.25;;;2.80;;
11006;SDS011;8186;57.652;11.968;2022-07-01T12:04:18;6.15;;;2.50;;
11006;SDS011;8186;57.652;11.968;2022-07-01T12:06:44;4.53;;;2.70;;
11006;SDS011;8186;57.652;11.968;2022-07-01T12:09:12;5.25;;;2.45;;
11006;SDS011;8186;57.652;11.968;2022-07-01T12:11:39;3.38;;;2.65;;
11006;SDS011;8186;57.652;11.968;2022-07-01T12:14:11;3.67;;;2.58;;
11006;SDS011;8186;57.652;11.968;2022-07-01T12:16:45;5.07;;;2.70;;
11006;SDS011;8186;57.652;11.968;2022-07-01T12:19:12;2.88;;;2.65;;
11006;SDS011;8186;57.652;11.968;2022-07-01T12:21:50;3.08;;;2.78;;
11006;SDS011;8186;57.652;11.968;2022-07-01T12:24:17;3.33;;;3.03;;
11006;SDS011;8186;57.652;11.968;2022-07-01T12:26:47;4.32;;;3.10;;
11006;SDS011;8186;57.652;11.968;2022-07-01T12:29:18;3.35;;;3.05;;
11006;SDS011;8186;57.652;11.968;2022-07-01T12:31:53;3.30;;;3.00;;
11006;SDS011;8186;57.652;11.968;2022-07-01T12:34:21;5.35;;;3.10;;
11006;SDS011;8186;57.652;11.968;2022-07-01T12:36:49;3.97;;;3.67;;
11006;SDS011;8186;57.652;11.968;2022-07-01T12:39:16;5.40;;;3.40;;
11006;SDS011;8186;57.652;11.968;2022-07-01T12:41:49;4.22;;;3.70;;
11006;SDS011;8186;57.652;11.968;2022-07-01T12:44:21;4.40;;;3.92;;
11006;SDS011;8186;57.652;11.968;2022-07-01T12:46:48;4.43;;;3.70;;
11006;SDS011;8186;57.652;11.968;2022-07-01T12:49:18;4.70;;;3.45;;
11006;SDS011;8186;57.652;11.968;2022-07-01T12:51:46;4.28;;;3.67;;
11006;SDS011;8186;57.652;11.968;2022-07-01T12:54:27;5.03;;;3.70;;
11006;SDS011;8186;57.652;11.968;2022-07-01T12:56:55;3.67;;;3.33;;
11006;SDS011;8186;57.652;11.968;2022-07-01T12:59:23;4.53;;;3.30;;
11006;SDS011;8186;57.652;11.968;2022-07-01T13:01:50;6.78;;;3.92;;
11006;SDS011;8186;57.652;11.968;2022-07-01T13:04:22;4.88;;;3.85;;
11006;SDS011;8186;57.652;11.968;2022-07-01T13:06:50;5.03;;;4.18;;
11006;SDS011;8186;57.652;11.968;2022-07-01T13:09:16;5.80;;;4.32;;
11006;SDS011;8186;57.652;11.968;2022-07-01T13:11:43;7.63;;;5.35;;
11006;SDS011;8186;57.652;11.968;2022-07-01T13:14:10;5.95;;;5.38;;
11006;SDS011;8186;57.652;11.968;2022-07-01T13:16:38;7.75;;;5.22;;
11006;SDS011;8186;57.652;11.968;2022-07-01T13:19:05;6.13;;;5.55;;
11006;SDS011;8186;57.652;11.968;2022-07-01T13:21:32;6.07;;;5.40;;
11006;SDS011;8186;57.652;11.968;2022-07-01T13:23:59;7.60;;;5.15;;
11006;SDS011;8186;57.652;11.968;2022-07-01T13:26:26;6.43;;;5.38;;
11006;SDS011;8186;57.652;11.968;2022-07-01T13:28:52;7.90;;;5.32;;
11006;SDS011;8186;57.652;11.968;2022-07-01T13:31:19;7.35;;;6.18;;
11006;SDS011;8186;57.652;11.968;2022-07-01T13:33:48;8.15;;;6.10;;
11006;SDS011;8186;57.652;11.968;2022-07-01T13:36:15;5.80;;;5.28;;
11006;SDS011;8186;57.652;11.968;2022-07-01T13:38:41;6.00;;;5.50;;
11006;SDS011;8186;57.652;11.968;2022-07-01T13:41:08;5.60;;;5.10;;
11006;SDS011;8186;57.652;11.968;2022-07-01T13:43:35;6.10;;;5.57;;
11006;SDS011;8186;57.652;11.968;2022-07-01T13:46:03;5.72;;;5.22;;
11006;SDS011;8186;57.652;11.968;2022-07-01T13:48:30;5.95;;;5.35;;
11006;SDS011;8186;57.652;11.968;2022-07-01T13:50:58;6.35;;;5.85;;
11006;SDS011;8186;57.652;11.968;2022-07-01T13:53:25;8.25;;;5.50;;
11006;SDS011;8186;57.652;11.968;2022-07-01T13:55:52;7.40;;;6.03;;
11006;SDS011;8186;57.652;11.968;2022-07-01T13:58:19;5.18;;;4.78;;
11006;SDS011;8186;57.652;11.968;2022-07-01T14:00:46;9.02;;;5.57;;
11006;SDS011;8186;57.652;11.968;2022-07-01T14:03:12;6.30;;;5.70;;
11006;SDS011;8186;57.652;11.968;2022-07-01T14:05:39;6.60;;;6.00;;
11006;SDS011;8186;57.652;11.968;2022-07-01T14:08:08;6.07;;;5.57;;
11006;SDS011;8186;57.652;11.968;2022-07-01T14:10:35;6.00;;;5.50;;
11006;SDS011;8186;57.652;11.968;2022-07-01T14:13:03;7.28;;;6.25;;
11006;SDS011;8186;57.652;11.968;2022-07-01T14:15:29;5.63;;;5.20;;
11006;SDS011;8186;57.652;11.968;2022-07-01T14:17:56;6.82;;;6.22;;
11006;SDS011;8186;57.652;11.968;2022-07-01T14:20:23;7.75;;;6.22;;
11006;SDS011;8186;57.652;11.968;2022-07-01T14:22:51;6.78;;;5.97;;
11006;SDS011;8186;57.652;11.968;2022-07-01T14:25:20;7.38;;;6.63;;
11006;SDS011;8186;57.652;11.968;2022-07-01T14:27:48;6.78;;;6.28;;
11006;SDS011;8186;57.652;11.968;2022-07-01T14:30:15;7.15;;;6.47;;
11006;SDS011;8186;57.652;11.968;2022-07-01T14:32:42;7.43;;;6.80;;
11006;SDS011;8186;57.652;11.968;2022-07-01T14:35:09;7.35;;;6.78;;
11006;SDS011;8186;57.652;11.968;2022-07-01T14:37:36;8.02;;;7.22;;
11006;SDS011;8186;57.652;11.968;2022-07-01T14:40:05;8.93;;;6.63;;
11006;SDS011;8186;57.652;11.968;2022-07-01T14:42:35;6.72;;;6.13;;
11006;SDS011;8186;57.652;11.968;2022-07-01T14:45:02;6.60;;;6.00;;
11006;SDS011;8186;57.652;11.968;2022-07-01T14:47:30;6.63;;;5.97;;
11006;SDS011;8186;57.652;11.968;2022-07-01T14:49:57;7.25;;;6.65;;
11006;SDS011;8186;57.652;11.968;2022-07-01T14:52:24;6.97;;;6.22;;
11006;SDS011;8186;57.652;11.968;2022-07-01T14:54:51;7.25;;;6.60;;
11006;SDS011;8186;57.652;11.968;2022-07-01T14:57:19;6.45;;;5.85;;
11006;SDS011;8186;57.652;11.968;2022-07-01T14:59:47;6.63;;;6.13;;
11006;SDS011;8186;57.652;11.968;2022-07-01T15:02:14;5.85;;;5.35;;
11006;SDS011;8186;57.652;11.968;2022-07-01T15:04:41;7.57;;;6.05;;